CDT,Max TemperatureF,Mean TemperatureF,Min TemperatureF,Max Dew PointF,MeanDew PointF,Min DewpointF,Max Humidity, Mean Humidity, Min Humidity, Max Sea Level PressureIn, Mean Sea Level PressureIn, Min Sea Level PressureIn, Max VisibilityMiles, Mean VisibilityMiles, Min VisibilityMiles, Max Wind SpeedMPH, Mean Wind SpeedMPH, Max Gust SpeedMPH,PrecipitationIn, CloudCover, Events, WindDirDegrees
2013-10-1,90,78,65,67,62,57,93,64,34,29.85,29.80,29.76,10,10,10,18,9,23,0.00,0,,175
2013-10-2,88,80,71,70,66,63,93,70,46,29.97,29.85,29.77,10,10,10,17,9,24,0.00,2,,169
2013-10-3,90,79,68,69,64,60,90,66,41,29.93,29.82,29.74,10,10,9,20,11,28,0.00,1,,181
2013-10-4,89,81,73,68,66,63,84,65,46,29.91,29.80,29.75,10,10,10,20,11,29,0.00,2,,181
2013-10-5,75,61,47,67,50,39,93,70,46,30.17,30.01,29.82,10,10,10,23,8,28,0.02,6,Rain-Thunderstorm,39
2013-10-6,78,61,43,46,40,26,93,54,15,30.22,30.16,30.10,10,10,10,13,5,17,0.00,0,,283
2013-10-7,84,63,42,46,41,33,89,53,17,30.20,30.12,30.05,10,10,10,8,4,18,0.00,0,,208
2013-10-8,84,65,45,45,43,39,89,56,22,30.07,30.00,29.93,10,10,10,17,6,23,0.00,0,,198
2013-10-9,84,69,53,55,50,43,77,56,34,30.01,29.93,29.88,10,10,10,21,8,29,0.00,0,,181
2013-10-10,86,74,61,61,56,49,87,58,29,30.00,29.89,29.78,10,10,10,22,9,29,0.00,1,,168
2013-10-11,89,78,66,66,59,47,87,56,24,29.88,29.82,29.76,10,10,10,20,9,26,0.00,1,,204
2013-10-12,88,76,63,68,64,59,90,69,48,30.06,29.95,29.87,10,10,10,14,4,16,0.01,3,Rain,36
2013-10-13,79,73,67,69,66,63,93,80,67,30.18,30.07,30.00,10,9,2,21,9,28,0.56,7,Rain-Thunderstorm,95
2013-10-14,79,74,68,69,67,66,93,82,71,30.14,30.01,29.86,10,8,2,18,8,23,0.04,7,Rain,151
2013-10-15,72,61,50,70,58,48,100,92,83,30.12,30.01,29.88,10,9,2,18,9,24,0.76,7,Rain,24
2013-10-16,63,56,49,50,48,46,93,77,60,30.16,30.11,30.05,10,10,4,16,7,20,T,7,Rain,24
2013-10-17,73,58,42,56,50,41,100,75,49,30.14,30.05,29.94,10,10,10,13,4,15,0.00,0,,145
2013-10-18,75,62,48,64,56,41,93,79,64,30.18,29.96,29.85,10,10,10,36,9,45,T,7,Rain,199
2013-10-19,64,52,39,44,39,36,92,64,36,30.29,30.18,30.08,10,10,10,15,6,17,0.00,2,,353
2013-10-20,76,59,41,56,49,39,96,73,50,30.06,29.94,29.82,10,10,10,20,8,24,0.00,0,,194
2013-10-21,71,62,52,57,53,49,93,73,53,30.16,29.99,29.85,10,10,9,17,8,23,0.00,4,,346
2013-10-22,74,58,42,48,43,36,96,62,28,30.24,30.17,30.10,10,10,10,8,3,8,0.00,0,,234
2013-10-23,78,60,41,46,42,38,89,58,26,30.19,30.13,30.08,10,10,8,17,6,21,0.00,0,,212
2013-10-24,78,60,41,49,45,40,93,63,33,30.22,30.16,30.11,10,10,10,15,6,20,0.00,0,,163
2013-10-25,76,61,46,55,49,44,93,65,36,30.32,30.22,30.16,10,10,10,15,4,21,0.00,1,,142
2013-10-26,78,68,58,61,58,52,90,72,54,30.17,30.11,30.04,10,10,10,23,8,30,0.00,6,,177
2013-10-27,71,63,54,57,53,49,90,74,57,30.19,30.07,29.98,10,10,10,13,4,15,0.00,5,,354
2013-10-28,82,70,57,64,61,55,100,77,54,30.01,29.95,29.87,10,9,6,21,9,29,0.00,4,,146
2013-10-29,80,75,70,67,66,63,84,73,62,30.01,29.95,29.88,10,10,10,18,9,25,0.02,6,Rain-Thunderstorm,171
2013-10-30,74,72,70,69,67,64,93,86,79,29.98,29.87,29.74,10,10,2,22,12,30,0.05,7,Rain,182
2013-10-31,75,61,47,63,42,28,84,51,18,29.95,29.85,29.75,10,10,10,24,12,31,0.00,0,,262